Time;durP1;ratioP1;P1;durP2;ratioP2;P2;SDS_P1;SDS_P2;PMS_P1;PMS_P2;Temp;Humidity;BMP_temperature;BMP_pressure;BME280_temperature;BME280_humidity;BME280_pressure;Samples;Min_cycle;Max_cycle;Signal;HPM_P1;HPM_P2
2021/07/12 00:00:15;;;;;;;15.85;13.07;;;;;;;;;;5078607;28;20052;-85
2021/07/12 00:02:42;;;;;;;18.02;14.38;;;;;;;;;;5078783;28;20045;-85
2021/07/12 00:05:09;;;;;;;19.17;14.82;;;;;;;;;;5086393;28;20055;-86
2021/07/12 00:07:36;;;;;;;19.83;13.80;;;;;;;;;;5100729;28;20586;-85
2021/07/12 00:10:07;;;;;;;17.63;13.10;;;;;;;;;;5098226;28;20134;-86
2021/07/12 00:12:34;;;;;;;22.83;13.68;;;;;;;;;;5097727;28;20055;-86
2021/07/12 00:15:02;;;;;;;16.73;14.23;;;;;;;;;;5099727;28;20052;-85
2021/07/12 00:17:29;;;;;;;19.50;14.57;;;;;;;;;;5100155;28;20186;-85
2021/07/12 00:19:56;;;;;;;16.60;14.32;;;;;;;;;;5100976;28;20048;-86
2021/07/12 00:22:23;;;;;;;22.17;14.85;;;;;;;;;;5100124;28;20381;-85
2021/07/12 00:24:50;;;;;;;19.27;14.75;;;;;;;;;;5101105;28;20112;-86
2021/07/12 00:27:19;;;;;;;19.50;15.25;;;;;;;;;;5098590;28;20328;-86
2021/07/12 00:29:46;;;;;;;21.23;16.25;;;;;;;;;;5099500;28;20146;-85
2021/07/12 00:32:13;;;;;;;19.10;14.65;;;;;;;;;;5099319;28;20074;-85
2021/07/12 00:34:40;;;;;;;19.38;15.20;;;;;;;;;;5097051;28;20150;-85
2021/07/12 00:37:07;;;;;;;16.48;14.80;;;;;;;;;;5078460;28;20087;-85
2021/07/12 00:39:34;;;;;;;21.30;15.13;;;;;;;;;;5078883;28;20052;-85
2021/07/12 00:42:00;;;;;;;16.77;14.90;;;;;;;;;;5078054;28;20044;-85
2021/07/12 00:44:27;;;;;;;18.98;15.07;;;;;;;;;;5078636;28;20059;-85
2021/07/12 00:46:54;;;;;;;18.65;14.85;;;;;;;;;;5076453;28;20060;-85
2021/07/12 00:49:21;;;;;;;21.77;15.15;;;;;;;;;;5079269;28;20048;-85
2021/07/12 00:51:48;;;;;;;21.85;16.20;;;;;;;;;;5078412;28;20067;-85
2021/07/12 00:54:15;;;;;;;19.15;16.05;;;;;;;;;;5078775;28;20048;-85
2021/07/12 00:56:42;;;;;;;22.13;17.00;;;;;;;;;;5079411;28;20052;-85
2021/07/12 00:59:08;;;;;;;20.20;16.02;;;;;;;;;;5081253;28;20160;-85
2021/07/12 01:01:35;;;;;;;24.23;17.08;;;;;;;;;;5080765;28;20450;-86
2021/07/12 01:04:02;;;;;;;26.85;17.63;;;;;;;;;;5077995;28;20049;-86
2021/07/12 01:06:28;;;;;;;22.58;15.98;;;;;;;;;;5077801;28;20394;-86
2021/07/12 01:08:55;;;;;;;24.75;16.20;;;;;;;;;;5078049;28;20040;-85
2021/07/12 01:11:28;;;;;;;26.55;16.40;;;;;;;;;;5078599;28;20044;-87
2021/07/12 01:14:18;;;;;;;22.70;16.95;;;;;;;;;;5078073;28;20101;-86
2021/07/12 01:16:54;;;;;;;20.60;17.08;;;;;;;;;;5083707;28;20135;-86
2021/07/12 01:19:38;;;;;;;30.40;17.30;;;;;;;;;;5087253;28;20041;-86
2021/07/12 01:22:19;;;;;;;28.23;18.17;;;;;;;;;;5078469;28;20099;-86
2021/07/12 01:25:05;;;;;;;19.77;16.98;;;;;;;;;;5075791;28;20079;-87
2021/07/12 01:27:39;;;;;;;19.38;15.52;;;;;;;;;;5076189;28;20408;-86
2021/07/12 01:30:22;;;;;;;25.42;15.75;;;;;;;;;;5077341;28;20049;-86
2021/07/12 01:33:05;;;;;;;18.10;16.13;;;;;;;;;;5077034;28;20053;-86
2021/07/12 01:35:42;;;;;;;19.95;15.38;;;;;;;;;;5088871;28;20403;-85
2021/07/12 01:38:14;;;;;;;23.73;15.18;;;;;;;;;;5099560;28;20392;-85
2021/07/12 01:41:04;;;;;;;18.95;15.73;;;;;;;;;;5099271;28;20054;-85
2021/07/12 01:43:40;;;;;;;21.33;14.88;;;;;;;;;;5088710;28;20055;-85
2021/07/12 01:46:09;;;;;;;19.05;15.07;;;;;;;;;;5099001;28;20071;-85
2021/07/12 01:48:53;;;;;;;17.95;15.10;;;;;;;;;;5099983;28;20060;-86
2021/07/12 01:51:24;;;;;;;19.85;14.57;;;;;;;;;;5098835;28;20051;-85
2021/07/12 01:54:12;;;;;;;20.08;14.68;;;;;;;;;;5099053;28;20138;-85
2021/07/12 01:57:05;;;;;;;18.63;15.45;;;;;;;;;;5098952;28;20117;-85
2021/07/12 01:59:41;;;;;;;19.08;15.75;;;;;;;;;;5095148;28;20052;-85
2021/07/12 02:02:11;;;;;;;;;;;;;;;;;;5099247;28;20397;-86
2021/07/12 02:04:40;;;;;;;19.70;16.42;;;;;;;;;;5093837;28;19920;-85
2021/07/12 02:07:10;;;;;;;22.75;16.17;;;;;;;;;;5097778;28;20047;-85
2021/07/12 02:09:37;;;;;;;19.58;15.57;;;;;;;;;;5099526;28;20058;-86
2021/07/12 02:12:04;;;;;;;21.17;15.45;;;;;;;;;;5099908;28;20128;-85
2021/07/12 02:14:35;;;;;;;19.85;16.45;;;;;;;;;;5097699;28;20098;-85
2021/07/12 02:17:03;;;;;;;19.85;17.75;;;;;;;;;;5097803;28;20102;-85
2021/07/12 02:19:31;;;;;;;22.67;16.98;;;;;;;;;;5099981;28;20055;-85
2021/07/12 02:22:00;;;;;;;24.60;16.77;;;;;;;;;;5102406;28;20048;-86
2021/07/12 02:24:28;;;;;;;23.75;16.48;;;;;;;;;;5104800;28;20048;-85
2021/07/12 02:26:55;;;;;;;23.55;18.10;;;;;;;;;;5081975;28;20105;-85
2021/07/12 02:29:29;;;;;;;21.33;17.85;;;;;;;;;;5077536;28;20254;-86
2021/07/12 02:31:56;;;;;;;26.95;19.48;;;;;;;;;;5095718;28;20060;-86
2021/07/12 02:34:24;;;;;;;26.58;18.33;;;;;;;;;;5078764;28;20053;-86
2021/07/12 02:36:52;;;;;;;26.40;19.42;;;;;;;;;;5101503;28;20059;-86
2021/07/12 02:39:19;;;;;;;20.60;18.13;;;;;;;;;;5106061;28;20058;-86
2021/07/12 02:41:47;;;;;;;28.08;20.05;;;;;;;;;;5113509;28;20039;-86
2021/07/12 02:44:15;;;;;;;26.15;20.73;;;;;;;;;;5109565;28;20126;-85
2021/07/12 02:46:42;;;;;;;29.55;20.20;;;;;;;;;;5104006;28;20059;-85
2021/07/12 02:49:09;;;;;;;28.38;20.40;;;;;;;;;;5100445;28;20356;-85
2021/07/12 02:51:42;;;;;;;21.92;19.27;;;;;;;;;;5099458;28;20056;-85
2021/07/12 02:54:11;;;;;;;20.95;17.90;;;;;;;;;;5098601;28;20320;-85
2021/07/12 02:56:37;;;;;;;25.50;19.05;;;;;;;;;;5098473;28;20048;-85
2021/07/12 02:59:04;;;;;;;25.17;20.10;;;;;;;;;;5106202;28;20051;-85
2021/07/12 03:01:30;;;;;;;26.42;20.90;;;;;;;;;;5112005;28;20054;-85
2021/07/12 03:03:57;;;;;;;25.95;18.75;;;;;;;;;;5111318;28;20059;-85
2021/07/12 03:06:31;;;;;;;23.98;21.33;;;;;;;;;;5119380;28;20280;-84
2021/07/12 03:09:05;;;;;;;28.67;21.92;;;;;;;;;;5120930;28;20062;-85
2021/07/12 03:11:44;;;;;;;29.38;21.45;;;;;;;;;;5118182;28;20385;-85
2021/07/12 03:14:18;;;;;;;27.42;22.23;;;;;;;;;;5120135;28;20048;-85
2021/07/12 03:16:45;;;;;;;25.85;21.30;;;;;;;;;;5125705;28;20052;-85
2021/07/12 03:19:16;;;;;;;26.15;21.10;;;;;;;;;;5125524;28;20043;-85
2021/07/12 03:21:43;;;;;;;29.20;21.98;;;;;;;;;;5125974;28;20051;-84
2021/07/12 03:24:13;;;;;;;27.70;22.10;;;;;;;;;;5123344;28;20059;-84
2021/07/12 03:26:42;;;;;;;24.63;20.52;;;;;;;;;;5123273;28;20044;-84
2021/07/12 03:29:10;;;;;;;28.88;23.30;;;;;;;;;;5124069;28;20615;-84
2021/07/12 03:31:38;;;;;;;31.85;25.80;;;;;;;;;;5124064;28;20060;-85
2021/07/12 03:34:06;;;;;;;37.35;27.02;;;;;;;;;;5123665;28;20101;-85
2021/07/12 03:36:33;;;;;;;34.72;24.95;;;;;;;;;;5103538;28;20058;-85
2021/07/12 03:39:00;;;;;;;39.28;28.08;;;;;;;;;;5102706;28;20048;-86
2021/07/12 03:41:27;;;;;;;32.05;26.60;;;;;;;;;;5104045;28;20470;-85
2021/07/12 03:44:05;;;;;;;34.47;25.95;;;;;;;;;;5103434;28;20047;-85
2021/07/12 03:46:32;;;;;;;33.78;28.00;;;;;;;;;;5104171;28;20316;-84
2021/07/12 03:48:58;;;;;;;34.55;25.42;;;;;;;;;;5102601;28;20056;-86
2021/07/12 03:51:26;;;;;;;30.80;26.13;;;;;;;;;;5100941;28;20051;-85
2021/07/12 03:53:57;;;;;;;34.15;27.05;;;;;;;;;;5102668;28;20055;-85
2021/07/12 03:56:26;;;;;;;32.03;25.50;;;;;;;;;;5102645;28;20419;-84
2021/07/12 03:58:53;;;;;;;31.95;26.73;;;;;;;;;;5101962;28;20071;-86
2021/07/12 04:01:21;;;;;;;31.92;24.33;;;;;;;;;;5101816;28;20469;-85
2021/07/12 04:03:49;;;;;;;28.25;24.33;;;;;;;;;;5099024;28;20083;-85
2021/07/12 04:06:18;;;;;;;31.30;25.45;;;;;;;;;;5099852;28;20048;-85
2021/07/12 04:08:45;;;;;;;34.40;25.30;;;;;;;;;;5092729;28;20048;-86
2021/07/12 04:11:13;;;;;;;32.42;26.48;;;;;;;;;;5081088;28;20060;-86
2021/07/12 04:13:39;;;;;;;34.75;28.35;;;;;;;;;;5077595;28;20329;-85
2021/07/12 04:16:06;;;;;;;31.38;23.40;;;;;;;;;;5079885;28;20313;-86
2021/07/12 04:18:33;;;;;;;30.92;21.70;;;;;;;;;;5080879;28;20151;-86
2021/07/12 04:21:03;;;;;;;30.17;20.13;;;;;;;;;;5076610;28;20063;-86
2021/07/12 04:23:30;;;;;;;24.48;18.58;;;;;;;;;;5078487;28;20056;-86
2021/07/12 04:26:00;;;;;;;18.45;14.98;;;;;;;;;;5078457;28;20049;-86
2021/07/12 04:28:26;;;;;;;18.90;15.43;;;;;;;;;;5079544;28;20108;-85
2021/07/12 04:31:02;;;;;;;21.23;14.32;;;;;;;;;;5082223;28;20048;-86
2021/07/12 04:33:30;;;;;;;23.10;14.15;;;;;;;;;;5078861;28;20499;-86
2021/07/12 04:35:56;;;;;;;19.35;15.63;;;;;;;;;;5078733;28;20040;-87
2021/07/12 04:38:23;;;;;;;21.33;14.50;;;;;;;;;;5092783;28;20108;-86
2021/07/12 04:40:50;;;;;;;18.75;14.68;;;;;;;;;;5120777;28;20048;-86
2021/07/12 04:43:17;;;;;;;15.55;13.95;;;;;;;;;;5118016;28;20047;-86
2021/07/12 04:45:44;;;;;;;21.38;14.68;;;;;;;;;;5118948;28;20047;-86
2021/07/12 04:48:10;;;;;;;16.27;14.18;;;;;;;;;;5118024;28;20051;-86
2021/07/12 04:50:46;;;;;;;17.77;13.88;;;;;;;;;;5092346;28;20450;-86
2021/07/12 04:53:12;;;;;;;14.85;13.10;;;;;;;;;;5093116;28;20045;-85
2021/07/12 04:55:39;;;;;;;18.30;14.20;;;;;;;;;;5092665;28;20044;-85
2021/07/12 04:58:07;;;;;;;16.65;13.95;;;;;;;;;;5091813;28;20383;-85
2021/07/12 05:00:35;;;;;;;18.10;14.07;;;;;;;;;;5091073;28;20105;-85
2021/07/12 05:03:04;;;;;;;15.65;13.68;;;;;;;;;;5091285;28;20048;-86
2021/07/12 05:05:35;;;;;;;18.65;14.90;;;;;;;;;;5092495;28;20179;-86
2021/07/12 05:08:02;;;;;;;23.98;14.80;;;;;;;;;;5093227;28;20044;-86
2021/07/12 05:10:29;;;;;;;17.98;14.23;;;;;;;;;;5093254;28;20047;-85
2021/07/12 05:12:57;;;;;;;28.55;19.58;;;;;;;;;;5092692;28;20044;-86
2021/07/12 05:15:27;;;;;;;24.17;18.85;;;;;;;;;;5092586;28;20133;-86
2021/07/12 05:18:06;;;;;;;34.25;23.42;;;;;;;;;;5091939;28;20138;-87
2021/07/12 05:20:33;;;;;;;34.05;21.00;;;;;;;;;;5092509;28;20048;-87
2021/07/12 05:23:00;;;;;;;31.83;21.08;;;;;;;;;;5093753;28;20085;-86
2021/07/12 05:25:27;;;;;;;31.80;22.15;;;;;;;;;;5084753;28;20066;-86
2021/07/12 05:27:54;;;;;;;35.33;22.02;;;;;;;;;;5084227;28;20037;-86
2021/07/12 05:30:29;;;;;;;31.33;22.92;;;;;;;;;;5084651;28;20072;-86
2021/07/12 05:32:56;;;;;;;33.38;22.65;;;;;;;;;;5078831;28;20065;-85
2021/07/12 05:35:25;;;;;;;32.70;21.92;;;;;;;;;;5081876;28;20426;-86
2021/07/12 05:37:52;;;;;;;28.85;19.48;;;;;;;;;;5090215;28;20048;-86
2021/07/12 05:40:19;;;;;;;28.45;21.35;;;;;;;;;;5091251;28;20040;-86
2021/07/12 05:42:46;;;;;;;26.20;19.15;;;;;;;;;;5090045;28;20105;-86
2021/07/12 05:45:13;;;;;;;24.20;18.13;;;;;;;;;;5090928;28;20113;-85
2021/07/12 05:47:42;;;;;;;24.67;17.23;;;;;;;;;;5075484;28;20060;-85
2021/07/12 05:50:11;;;;;;;23.55;18.00;;;;;;;;;;5069894;28;20048;-85
2021/07/12 05:52:40;;;;;;;25.65;18.33;;;;;;;;;;5079654;28;20234;-85
2021/07/12 05:55:07;;;;;;;21.10;17.95;;;;;;;;;;5088760;28;20066;-86
2021/07/12 05:57:37;;;;;;;22.92;17.55;;;;;;;;;;5089002;28;20145;-87
2021/07/12 06:00:05;;;;;;;23.85;17.83;;;;;;;;;;5083438;28;20135;-86
2021/07/12 06:02:32;;;;;;;21.10;17.42;;;;;;;;;;5090999;28;20054;-87
2021/07/12 06:05:12;;;;;;;;;;;;;;;;;;;;;
2021/07/12 06:07:50;;;;;;;20.02;16.63;;;;;;;;;;5091779;28;20052;-86
2021/07/12 06:10:28;;;;;;;21.17;16.23;;;;;;;;;;5091631;28;20048;-87
2021/07/12 06:13:27;;;;;;;20.95;16.83;;;;;;;;;;5094386;28;20044;-86
2021/07/12 06:16:21;;;;;;;22.60;17.42;;;;;;;;;;5091521;28;20044;-87
2021/07/12 06:18:52;;;;;;;21.92;16.55;;;;;;;;;;5077162;28;20052;-86
2021/07/12 06:21:32;;;;;;;21.13;17.40;;;;;;;;;;5087416;28;20052;-86
2021/07/12 06:24:24;;;;;;;20.38;16.20;;;;;;;;;;5090731;28;20087;-87
2021/07/12 06:27:12;;;;;;;25.88;17.30;;;;;;;;;;5091137;28;20052;-87
2021/07/12 06:33:13;;;;;;;21.25;16.67;;;;;;;;;;5086536;28;20418;-86
2021/07/12 06:35:51;;;;;;;22.25;16.13;;;;;;;;;;5085003;28;20072;-86
2021/07/12 06:38:22;;;;;;;20.77;15.40;;;;;;;;;;5096148;28;20105;-87
2021/07/12 06:40:51;;;;;;;23.73;17.77;;;;;;;;;;5097526;28;20105;-87
2021/07/12 06:43:40;;;;;;;20.38;15.00;;;;;;;;;;5096817;28;20044;-88
2021/07/12 06:46:21;;;;;;;19.38;14.85;;;;;;;;;;5089613;28;20144;-88
2021/07/12 06:48:49;;;;;;;18.75;15.55;;;;;;;;;;5086288;28;20410;-87
2021/07/12 06:51:16;;;;;;;20.85;16.02;;;;;;;;;;5072957;28;20053;-87
2021/07/12 06:53:43;;;;;;;22.05;15.82;;;;;;;;;;5076050;28;20049;-86
2021/07/12 06:56:11;;;;;;;16.10;13.40;;;;;;;;;;5077242;28;20385;-86
2021/07/12 06:58:42;;;;;;;19.23;12.38;;;;;;;;;;5075316;28;20312;-85
2021/07/12 07:01:09;;;;;;;22.67;13.93;;;;;;;;;;5077934;28;20104;-86
2021/07/12 07:03:35;;;;;;;16.45;13.27;;;;;;;;;;5077862;28;20048;-87
2021/07/12 07:06:14;;;;;;;18.30;12.63;;;;;;;;;;5093272;28;20044;-86
2021/07/12 07:08:41;;;;;;;14.13;11.43;;;;;;;;;;5099182;28;20056;-86
2021/07/12 07:11:08;;;;;;;17.35;11.48;;;;;;;;;;5097375;28;20464;-86
2021/07/12 07:13:38;;;;;;;14.95;11.65;;;;;;;;;;5098823;28;20465;-87
2021/07/12 07:16:06;;;;;;;15.85;11.90;;;;;;;;;;5100224;28;20055;-86
2021/07/12 07:18:33;;;;;;;16.33;12.30;;;;;;;;;;5089542;28;20172;-86
2021/07/12 07:21:00;;;;;;;12.10;10.70;;;;;;;;;;5078320;28;20045;-88
2021/07/12 07:23:30;;;;;;;12.88;10.75;;;;;;;;;;5078028;28;20105;-87
2021/07/12 07:25:57;;;;;;;14.98;11.85;;;;;;;;;;5078158;28;20435;-87
2021/07/12 07:28:23;;;;;;;15.70;9.85;;;;;;;;;;5075817;28;20053;-86
2021/07/12 07:30:50;;;;;;;15.30;11.55;;;;;;;;;;5075650;28;20136;-88
2021/07/12 07:33:26;;;;;;;11.90;9.10;;;;;;;;;;5088786;28;20048;-88
2021/07/12 07:36:18;;;;;;;12.90;10.35;;;;;;;;;;5107629;28;20039;-89
2021/07/12 07:38:48;;;;;;;11.20;9.50;;;;;;;;;;5116551;28;20520;-87
2021/07/12 07:41:15;;;;;;;10.68;9.05;;;;;;;;;;5117282;28;20047;-88
2021/07/12 07:43:41;;;;;;;13.15;9.40;;;;;;;;;;5117215;28;20040;-87
2021/07/12 07:46:08;;;;;;;10.55;8.95;;;;;;;;;;5115202;28;20427;-87
2021/07/12 07:48:36;;;;;;;9.23;7.78;;;;;;;;;;5115276;28;20066;-87
2021/07/12 07:51:04;;;;;;;14.25;8.95;;;;;;;;;;5115119;27;20062;-87
2021/07/12 07:53:35;;;;;;;11.75;9.15;;;;;;;;;;5123540;28;20032;-86
2021/07/12 07:56:22;;;;;;;11.20;8.55;;;;;;;;;;5115587;27;20359;-88
2021/07/12 07:58:50;;;;;;;8.98;8.05;;;;;;;;;;5104105;28;20069;-88
2021/07/12 08:01:16;;;;;;;10.10;7.15;;;;;;;;;;5093346;28;20048;-87
2021/07/12 08:03:43;;;;;;;7.82;6.93;;;;;;;;;;5071103;28;20060;-88
2021/07/12 08:06:10;;;;;;;10.45;8.60;;;;;;;;;;5073259;28;20455;-86
2021/07/12 08:08:38;;;;;;;13.07;7.95;;;;;;;;;;5076561;28;20493;-87
2021/07/12 08:11:05;;;;;;;10.13;7.35;;;;;;;;;;5074984;28;20173;-89
2021/07/12 08:13:31;;;;;;;11.93;8.10;;;;;;;;;;5096380;28;20056;-86
2021/07/12 08:16:15;;;;;;;9.13;8.02;;;;;;;;;;5097762;28;20362;-88
2021/07/12 08:18:41;;;;;;;11.43;8.30;;;;;;;;;;5090896;28;20070;-87
2021/07/12 08:21:10;;;;;;;11.05;8.10;;;;;;;;;;5090993;28;20098;-87
2021/07/12 08:23:52;;;;;;;8.02;7.22;;;;;;;;;;5092523;28;20293;-87
2021/07/12 08:26:19;;;;;;;9.52;6.90;;;;;;;;;;5090777;28;20075;-87
2021/07/12 08:28:46;;;;;;;9.80;6.50;;;;;;;;;;5090920;28;20300;-86
2021/07/12 08:31:18;;;;;;;9.05;5.60;;;;;;;;;;5092143;28;20108;-87
2021/07/12 08:33:51;;;;;;;7.72;5.20;;;;;;;;;;5096323;28;20445;-87
2021/07/12 08:36:24;;;;;;;8.00;5.50;;;;;;;;;;5096326;28;20044;-86
2021/07/12 08:38:51;;;;;;;6.75;5.60;;;;;;;;;;5094793;28;20309;-87
2021/07/12 08:41:26;;;;;;;6.93;5.03;;;;;;;;;;5113510;28;20116;-87
2021/07/12 08:43:54;;;;;;;;;;;;;;;;;;5088668;28;20054;-86
2021/07/12 08:46:24;;;;;;;8.63;5.15;;;;;;;;;;5094102;28;19998;-86
2021/07/12 08:48:57;;;;;;;8.77;4.70;;;;;;;;;;5093298;28;20212;-86
2021/07/12 08:51:28;;;;;;;16.42;6.07;;;;;;;;;;5091287;28;20048;-85
2021/07/12 08:54:05;;;;;;;5.53;3.72;;;;;;;;;;5076083;28;20203;-87
2021/07/12 08:56:37;;;;;;;4.20;3.10;;;;;;;;;;5078196;28;20071;-87
2021/07/12 08:59:23;;;;;;;2.50;2.30;;;;;;;;;;5072884;28;20063;-87
2021/07/12 09:02:14;;;;;;;4.20;2.10;;;;;;;;;;5071896;28;20235;-87
2021/07/12 09:04:46;;;;;;;3.70;2.58;;;;;;;;;;5081572;28;20052;-86
2021/07/12 09:07:29;;;;;;;5.22;4.13;;;;;;;;;;5092797;28;20151;-86
2021/07/12 09:10:00;;;;;;;3.67;2.97;;;;;;;;;;5093983;28;20129;-87
2021/07/12 09:12:38;;;;;;;8.00;4.32;;;;;;;;;;5106757;28;20164;-87
2021/07/12 09:15:09;;;;;;;4.30;3.90;;;;;;;;;;5112345;28;20112;-87
2021/07/12 09:17:39;;;;;;;5.40;4.57;;;;;;;;;;5113894;28;20047;-87
2021/07/12 09:20:07;;;;;;;6.22;3.90;;;;;;;;;;5075315;28;20056;-86
2021/07/12 09:22:38;;;;;;;4.47;3.38;;;;;;;;;;5071283;28;20208;-87
2021/07/12 09:25:07;;;;;;;5.57;3.47;;;;;;;;;;5076420;28;20355;-89
2021/07/12 09:27:44;;;;;;;5.45;3.30;;;;;;;;;;5077207;28;20044;-85
2021/07/12 09:30:12;;;;;;;10.63;4.32;;;;;;;;;;5091446;28;20115;-85
2021/07/12 09:32:39;;;;;;;6.57;3.95;;;;;;;;;;5095736;28;20066;-85
2021/07/12 09:35:12;;;;;;;5.68;3.13;;;;;;;;;;5094110;28;20067;-84
2021/07/12 09:37:40;;;;;;;5.38;3.60;;;;;;;;;;5095038;28;20066;-84
2021/07/12 09:40:14;;;;;;;5.28;4.18;;;;;;;;;;5092940;28;20051;-88
2021/07/12 09:42:45;;;;;;;5.75;4.50;;;;;;;;;;5103973;28;20052;-88
2021/07/12 09:45:12;;;;;;;5.18;4.68;;;;;;;;;;5103634;28;20108;-87
2021/07/12 09:47:40;;;;;;;4.97;3.53;;;;;;;;;;5094529;28;20082;-88
2021/07/12 09:50:11;;;;;;;6.32;4.10;;;;;;;;;;5089296;28;20291;-87
2021/07/12 09:52:52;;;;;;;5.72;3.70;;;;;;;;;;5090182;28;20052;-88
2021/07/12 09:55:24;;;;;;;7.43;3.60;;;;;;;;;;5090967;28;20374;-88
2021/07/12 09:58:17;;;;;;;5.45;4.45;;;;;;;;;;5090637;28;20231;-87
2021/07/12 10:00:51;;;;;;;4.50;4.07;;;;;;;;;;5092761;28;20052;-87
2021/07/12 10:03:19;;;;;;;5.38;4.07;;;;;;;;;;5092306;28;20233;-88
2021/07/12 10:05:55;;;;;;;4.13;3.50;;;;;;;;;;5083043;28;20063;-88
2021/07/12 10:08:22;;;;;;;4.30;3.80;;;;;;;;;;5073202;28;20058;-87
2021/07/12 10:10:48;;;;;;;5.28;4.10;;;;;;;;;;5072621;28;20087;-87
2021/07/12 10:13:15;;;;;;;3.50;3.20;;;;;;;;;;5094106;28;20062;-87
2021/07/12 10:15:43;;;;;;;5.25;4.47;;;;;;;;;;5092455;28;20113;-88
2021/07/12 10:18:10;;;;;;;9.02;4.65;;;;;;;;;;5094126;28;20309;-86
2021/07/12 10:20:46;;;;;;;4.50;4.10;;;;;;;;;;5091186;28;20252;-87
2021/07/12 10:23:14;;;;;;;8.02;4.93;;;;;;;;;;5095537;28;20209;-86
2021/07/12 10:25:46;;;;;;;5.57;3.55;;;;;;;;;;5112970;28;20096;-87
2021/07/12 10:28:41;;;;;;;8.67;4.10;;;;;;;;;;5108611;28;20079;-88
2021/07/12 10:31:24;;;;;;;5.30;4.47;;;;;;;;;;5093308;28;20831;-87
2021/07/12 10:34:25;;;;;;;4.82;4.32;;;;;;;;;;5093213;28;20044;-86
2021/07/12 10:37:26;;;;;;;5.03;4.00;;;;;;;;;;5074796;28;20052;-86
2021/07/12 10:40:21;;;;;;;6.85;4.65;;;;;;;;;;5063406;28;20163;-87
2021/07/12 10:43:10;;;;;;;5.10;3.55;;;;;;;;;;5075108;28;20048;-86
2021/07/12 10:45:51;;;;;;;4.45;3.70;;;;;;;;;;5074366;28;20058;-87
2021/07/12 10:48:52;;;;;;;;;;;;;;;;;;;;;
2021/07/12 10:55:28;;;;;;;4.55;3.15;;;;;;;;;;5067200;28;20114;-87
2021/07/12 11:09:52;;;;;;;3.83;3.47;;;;;;;;;;5035842;28;20038;-88
2021/07/12 11:13:13;;;;;;;4.57;3.40;;;;;;;;;;4972709;28;20046;-87
2021/07/12 11:16:15;;;;;;;4.80;3.97;;;;;;;;;;4992825;28;20046;-86
2021/07/12 11:33:32;;;;;;;;;;;;;;;;;;;;;
2021/07/12 11:36:06;;;;;;;5.38;4.43;;;;;;;;;;5090639;28;20039;-86
2021/07/12 11:42:47;;;;;;;4.20;3.20;;;;;;;;;;5052215;28;20235;-87
2021/07/12 11:49:10;;;;;;;5.15;3.65;;;;;;;;;;5045333;28;20046;-87
2021/07/12 11:52:05;;;;;;;6.13;3.90;;;;;;;;;;5043457;28;20060;-88
2021/07/12 11:55:24;;;;;;;5.82;4.35;;;;;;;;;;5017966;28;20303;-87
2021/07/12 11:58:13;;;;;;;4.22;3.83;;;;;;;;;;5031035;28;20045;-88
2021/07/12 12:01:09;;;;;;;4.28;3.85;;;;;;;;;;5016189;28;20115;-88
2021/07/12 12:04:35;;;;;;;;;;;;;;;;;;;;;
2021/07/12 12:10:54;;;;;;;4.82;4.43;;;;;;;;;;5082189;28;20034;-88
2021/07/12 12:13:54;;;;;;;5.88;3.75;;;;;;;;;;5095377;28;20177;-86
2021/07/12 12:16:45;;;;;;;4.32;3.92;;;;;;;;;;5070161;28;20151;-88
2021/07/12 12:22:51;;;;;;;5.63;4.65;;;;;;;;;;5202415;22;20089;-89
2021/07/12 12:25:29;;;;;;;4.75;4.20;;;;;;;;;;5077231;28;20056;-88
2021/07/12 12:28:31;;;;;;;6.43;4.65;;;;;;;;;;5060170;28;20049;-87
2021/07/12 12:31:10;;;;;;;5.40;4.53;;;;;;;;;;5059181;28;20078;-87
2021/07/12 12:34:13;;;;;;;;;;;;;;;;;;;;;
2021/07/12 12:40:41;;;;;;;5.78;4.22;;;;;;;;;;5074297;28;20221;-88
2021/07/12 12:43:41;;;;;;;6.20;4.40;;;;;;;;;;5037004;28;20134;-88
2021/07/12 12:49:41;;;;;;;5.65;3.90;;;;;;;;;;5071634;28;20043;-88
2021/07/12 12:52:35;;;;;;;5.05;4.55;;;;;;;;;;5097873;28;20350;-87
2021/07/12 12:55:34;;;;;;;5.18;4.72;;;;;;;;;;5109092;28;20051;-87
2021/07/12 12:58:22;;;;;;;4.97;4.13;;;;;;;;;;5074453;28;20346;-88
2021/07/12 13:01:32;;;;;;;5.45;4.07;;;;;;;;;;5090127;28;20073;-87
2021/07/12 13:04:24;;;;;;;4.82;4.32;;;;;;;;;;5073503;28;20048;-89
2021/07/12 13:06:55;;;;;;;5.80;4.47;;;;;;;;;;5109421;27;20043;-87
2021/07/12 13:09:36;;;;;;;5.97;4.80;;;;;;;;;;5123419;27;20032;-89
2021/07/12 13:12:10;;;;;;;5.72;4.43;;;;;;;;;;5099672;27;20122;-88
2021/07/12 13:15:16;;;;;;;4.60;4.20;;;;;;;;;;5093337;28;20354;-88
2021/07/12 13:18:01;;;;;;;5.03;4.10;;;;;;;;;;5095349;28;20129;-86
2021/07/12 13:20:46;;;;;;;4.55;4.15;;;;;;;;;;5097578;28;20052;-88
2021/07/12 13:23:25;;;;;;;6.35;4.28;;;;;;;;;;5096623;28;20234;-87
2021/07/12 13:26:20;;;;;;;5.18;4.10;;;;;;;;;;5090581;28;20151;-87
2021/07/12 13:29:02;;;;;;;4.30;3.90;;;;;;;;;;5109336;28;20264;-87
2021/07/12 13:32:04;;;;;;;6.90;3.70;;;;;;;;;;5115723;28;20165;-88
2021/07/12 13:35:21;;;;;;;;;;;;;;;;;;;;;
2021/07/12 13:38:19;;;;;;;5.25;3.92;;;;;;;;;;5084147;28;20082;-88
2021/07/12 13:41:05;;;;;;;5.53;3.90;;;;;;;;;;5080167;28;20170;-87
2021/07/12 13:43:46;;;;;;;4.13;3.72;;;;;;;;;;5091256;28;20640;-88
2021/07/12 13:46:29;;;;;;;4.07;3.67;;;;;;;;;;5092042;28;20043;-88
2021/07/12 13:49:18;;;;;;;4.40;4.00;;;;;;;;;;5100105;28;20182;-89
2021/07/12 13:51:58;;;;;;;3.80;3.50;;;;;;;;;;5106007;28;20364;-86
2021/07/12 13:55:11;;;;;;;4.68;3.88;;;;;;;;;;5106944;28;20039;-88
2021/07/12 13:57:48;;;;;;;6.00;4.03;;;;;;;;;;5086899;28;20192;-87
2021/07/12 14:00:36;;;;;;;5.07;3.90;;;;;;;;;;5078789;28;20550;-87
2021/07/12 14:03:12;;;;;;;4.63;3.40;;;;;;;;;;5083645;28;20084;-87
2021/07/12 14:05:53;;;;;;;5.70;3.28;;;;;;;;;;5086843;28;20324;-87
2021/07/12 14:08:26;;;;;;;3.33;3.03;;;;;;;;;;5073067;28;20067;-87
2021/07/12 14:11:02;;;;;;;5.25;3.25;;;;;;;;;;5070600;28;20119;-87
2021/07/12 14:14:32;;;;;;;;;;;;;;;;;;;;;
2021/07/12 14:17:14;;;;;;;3.25;2.95;;;;;;;;;;5090008;28;20264;-88
2021/07/12 14:20:09;;;;;;;6.70;3.20;;;;;;;;;;5075383;28;20164;-88
2021/07/12 14:22:36;;;;;;;3.50;3.15;;;;;;;;;;5084966;28;20350;-88
2021/07/12 14:25:03;;;;;;;4.63;3.30;;;;;;;;;;5087770;28;20058;-88
2021/07/12 14:27:30;;;;;;;6.05;3.40;;;;;;;;;;5084343;28;20044;-87
2021/07/12 14:30:01;;;;;;;3.97;3.33;;;;;;;;;;5085869;28;20055;-87
2021/07/12 14:32:29;;;;;;;3.88;3.47;;;;;;;;;;5084968;28;20055;-86
2021/07/12 14:34:58;;;;;;;3.20;2.90;;;;;;;;;;5084272;28;20048;-88
2021/07/12 14:37:25;;;;;;;4.97;3.15;;;;;;;;;;5084787;28;20051;-87
2021/07/12 14:39:52;;;;;;;4.10;3.25;;;;;;;;;;5081570;28;20044;-87
2021/07/12 14:42:19;;;;;;;5.03;4.15;;;;;;;;;;5091220;28;20111;-87
2021/07/12 14:44:49;;;;;;;4.78;3.72;;;;;;;;;;5091230;28;20094;-88
2021/07/12 14:47:29;;;;;;;3.90;3.50;;;;;;;;;;5086534;28;20082;-88
2021/07/12 14:49:58;;;;;;;4.85;3.97;;;;;;;;;;5092264;28;20047;-88
2021/07/12 14:52:39;;;;;;;9.80;3.90;;;;;;;;;;5108685;28;20187;-89
2021/07/12 14:55:07;;;;;;;4.25;3.85;;;;;;;;;;5092067;28;20112;-88
2021/07/12 14:57:35;;;;;;;5.70;3.15;;;;;;;;;;5074591;28;20209;-87
2021/07/12 15:00:06;;;;;;;6.57;3.53;;;;;;;;;;5093629;28;20130;-87
2021/07/12 15:02:35;;;;;;;6.78;3.72;;;;;;;;;;5073756;28;20075;-88
2021/07/12 15:05:02;;;;;;;3.53;3.22;;;;;;;;;;5113515;28;20047;-87
2021/07/12 15:07:29;;;;;;;4.97;3.90;;;;;;;;;;5093190;28;20047;-86
2021/07/12 15:09:58;;;;;;;4.18;3.60;;;;;;;;;;5090568;28;20115;-86
2021/07/12 15:12:26;;;;;;;4.22;3.47;;;;;;;;;;5081099;28;20052;-87
2021/07/12 15:14:59;;;;;;;4.13;3.75;;;;;;;;;;5080386;28;20060;-87
2021/07/12 15:17:29;;;;;;;3.95;2.97;;;;;;;;;;5098173;28;20157;-88
2021/07/12 15:20:06;;;;;;;5.07;3.10;;;;;;;;;;5088675;28;20342;-87
2021/07/12 15:22:45;;;;;;;5.68;2.90;;;;;;;;;;5101986;28;20327;-87
2021/07/12 15:25:13;;;;;;;5.22;2.97;;;;;;;;;;5098031;28;20058;-87
2021/07/12 15:27:41;;;;;;;3.72;3.42;;;;;;;;;;5098912;28;20334;-87
2021/07/12 15:30:12;;;;;;;3.50;3.08;;;;;;;;;;5119960;27;20510;-87
2021/07/12 15:32:39;;;;;;;5.93;3.20;;;;;;;;;;5099093;28;20104;-88
2021/07/12 15:35:07;;;;;;;4.20;3.80;;;;;;;;;;5115487;28;20048;-88
2021/07/12 15:37:40;;;;;;;3.85;3.40;;;;;;;;;;5100773;28;20043;-88
2021/07/12 15:40:08;;;;;;;6.88;2.92;;;;;;;;;;5094534;28;20110;-88
2021/07/12 15:42:49;;;;;;;4.70;3.45;;;;;;;;;;5096175;28;20107;-88
2021/07/12 15:45:17;;;;;;;4.57;3.63;;;;;;;;;;5089880;28;20522;-87
2021/07/12 15:47:45;;;;;;;9.50;3.50;;;;;;;;;;5092401;28;20039;-87
2021/07/12 15:50:14;;;;;;;4.55;3.90;;;;;;;;;;5095395;28;20051;-88
2021/07/12 15:52:42;;;;;;;5.85;4.32;;;;;;;;;;5113878;28;20599;-87
2021/07/12 15:55:11;;;;;;;5.07;3.88;;;;;;;;;;5096019;28;20051;-88
2021/07/12 15:57:42;;;;;;;4.07;3.33;;;;;;;;;;5095468;28;20562;-88
2021/07/12 16:00:14;;;;;;;6.07;3.33;;;;;;;;;;5098277;28;20054;-88
2021/07/12 16:02:46;;;;;;;8.25;3.85;;;;;;;;;;5101253;28;20418;-86
2021/07/12 16:05:36;;;;;;;4.43;4.03;;;;;;;;;;5103970;28;20153;-88
2021/07/12 16:08:11;;;;;;;6.05;3.80;;;;;;;;;;5081054;28;20215;-88
2021/07/12 16:10:39;;;;;;;5.25;3.88;;;;;;;;;;5095199;28;20440;-87
2021/07/12 16:13:09;;;;;;;4.07;3.63;;;;;;;;;;5097030;28;20111;-87